Time;durP1;ratioP1;P1;durP2;ratioP2;P2;SDS_P1;SDS_P2;PMS_P1;PMS_P2;Temp;Humidity;BMP_temperature;BMP_pressure;BME280_temperature;BME280_humidity;BME280_pressure;Samples;Min_cycle;Max_cycle;Signal;HPM_P1;HPM_P2
2021/12/02 00:02:16;;;;;;;1.60;1.60;;;16.80;67.30;;;;;;4892615;29;43899;-79
2021/12/02 00:04:44;;;;;;;1.83;1.83;;;16.80;67.20;;;;;;4903737;29;44156;-79
2021/12/02 00:07:12;;;;;;;1.70;1.70;;;17.00;67.00;;;;;;4889405;29;44110;-79
2021/12/02 00:09:41;;;;;;;1.60;1.60;;;17.00;66.50;;;;;;4873150;29;45630;-78
2021/12/02 00:12:09;;;;;;;1.80;1.80;;;17.00;66.50;;;;;;4890857;29;44115;-78
2021/12/02 00:14:42;;;;;;;1.50;1.50;;;17.00;66.60;;;;;;4896657;29;44061;-79
2021/12/02 00:17:16;;;;;;;1.60;1.60;;;16.90;67.50;;;;;;4887078;29;45274;-79
2021/12/02 00:22:31;;;;;;;1.70;1.70;;;16.90;67.10;;;;;;4873877;29;44086;-79
2021/12/02 00:25:01;;;;;;;1.63;1.63;;;16.80;67.20;;;;;;4872156;29;44126;-79
2021/12/02 00:27:29;;;;;;;1.70;1.70;;;16.80;67.30;;;;;;4889835;29;44351;-78
2021/12/02 00:30:00;;;;;;;1.67;1.67;;;16.70;67.30;;;;;;4904081;29;44597;-79
2021/12/02 00:32:30;;;;;;;1.60;1.60;;;16.70;67.40;;;;;;4903877;29;43969;-79
2021/12/02 00:34:58;;;;;;;1.73;1.63;;;16.70;67.40;;;;;;4889929;29;43990;-78
2021/12/02 00:37:27;;;;;;;1.27;1.27;;;16.70;67.50;;;;;;4872201;29;45477;-79
2021/12/02 00:39:57;;;;;;;1.53;1.53;;;16.70;67.50;;;;;;4889472;29;44062;-79
2021/12/02 00:42:25;;;;;;;1.60;1.60;;;16.70;67.60;;;;;;4887896;29;43489;-79
2021/12/02 00:44:54;;;;;;;1.40;1.40;;;16.80;67.50;;;;;;4890401;29;44300;-79
2021/12/02 00:47:23;;;;;;;1.63;1.63;;;16.90;67.00;;;;;;4889421;29;44010;-79
2021/12/02 00:49:51;;;;;;;1.50;1.50;;;17.00;66.60;;;;;;4889941;29;44004;-79
2021/12/02 00:52:19;;;;;;;1.60;1.60;;;17.10;66.40;;;;;;4890439;29;43478;-79
2021/12/02 00:54:47;;;;;;;1.70;1.70;;;17.20;66.90;;;;;;4889866;29;44145;-79
2021/12/02 00:57:15;;;;;;;1.30;1.30;;;17.10;65.90;;;;;;4889140;29;44277;-79
2021/12/02 00:59:44;;;;;;;1.50;1.50;;;17.10;66.20;;;;;;4893877;29;44773;-79
2021/12/02 01:02:12;;;;;;;1.60;1.60;;;17.00;66.40;;;;;;4889405;29;43440;-79
2021/12/02 01:04:41;;;;;;;1.50;1.50;;;17.00;66.60;;;;;;4872974;29;44071;-79
2021/12/02 01:07:10;;;;;;;1.40;1.40;;;17.00;66.80;;;;;;4888937;29;43960;-78
2021/12/02 01:09:38;;;;;;;1.40;1.40;;;16.90;66.80;;;;;;4885485;29;44076;-79
2021/12/02 01:12:06;;;;;;;1.40;1.40;;;16.90;67.00;;;;;;4888547;29;44335;-79
2021/12/02 01:14:34;;;;;;;1.60;1.57;;;16.90;67.10;;;;;;4889979;29;44043;-78
2021/12/02 01:17:03;;;;;;;1.50;1.50;;;16.80;67.10;;;;;;4895653;29;44048;-79
2021/12/02 01:19:31;;;;;;;1.20;1.20;;;16.80;67.20;;;;;;4890364;29;44017;-79
2021/12/02 01:22:01;;;;;;;1.40;1.40;;;16.80;67.20;;;;;;4889058;29;43946;-78
2021/12/02 01:24:29;;;;;;;1.60;1.53;;;16.90;67.10;;;;;;4872373;29;44036;-79
2021/12/02 01:26:57;;;;;;;1.50;1.50;;;17.00;66.80;;;;;;4871959;29;43899;-79
2021/12/02 01:29:25;;;;;;;1.20;1.20;;;17.00;66.60;;;;;;4871418;29;44229;-79
2021/12/02 01:31:57;;;;;;;1.30;1.30;;;17.00;66.70;;;;;;4888169;29;43998;-79
2021/12/02 01:34:26;;;;;;;1.50;1.50;;;16.90;66.70;;;;;;4888609;29;44015;-78
2021/12/02 01:36:55;;;;;;;1.40;1.40;;;16.90;66.90;;;;;;4888178;29;44989;-79
2021/12/02 01:39:24;;;;;;;1.57;1.57;;;16.90;67.00;;;;;;4888478;29;43991;-78
2021/12/02 01:41:53;;;;;;;1.50;1.40;;;16.90;67.10;;;;;;4889009;29;44034;-78
2021/12/02 01:44:25;;;;;;;1.33;1.33;;;16.90;67.20;;;;;;4871783;29;44237;-78
2021/12/02 01:46:57;;;;;;;1.40;1.40;;;16.80;67.10;;;;;;4870931;29;44188;-78
2021/12/02 01:49:29;;;;;;;1.30;1.30;;;16.80;67.20;;;;;;4887826;29;44006;-79
2021/12/02 01:51:57;;;;;;;1.40;1.40;;;16.80;67.30;;;;;;4887431;29;43480;-79
2021/12/02 01:54:27;;;;;;;1.30;1.30;;;16.80;67.30;;;;;;4871899;29;43473;-79
2021/12/02 01:56:58;;;;;;;1.50;1.50;;;16.80;67.40;;;;;;4871568;29;44404;-79
2021/12/02 01:59:28;;;;;;;1.40;1.40;;;16.80;67.50;;;;;;4870227;29;44741;-79
2021/12/02 02:01:57;;;;;;;1.60;1.60;;;16.80;67.40;;;;;;4872711;29;43538;-77
2021/12/02 02:04:25;;;;;;;1.30;1.30;;;17.00;67.20;;;;;;4869665;29;43550;-77
2021/12/02 02:06:55;;;;;;;1.27;1.27;;;17.10;66.70;;;;;;4891899;29;45679;-78
2021/12/02 02:09:26;;;;;;;1.40;1.40;;;17.10;66.30;;;;;;4887336;29;43930;-77
2021/12/02 02:11:54;;;;;;;1.30;1.30;;;17.20;66.10;;;;;;4869843;29;44051;-76
2021/12/02 02:14:23;;;;;;;1.27;1.27;;;17.20;65.90;;;;;;4887333;29;44098;-77
2021/12/02 02:16:51;;;;;;;1.07;1.07;;;17.20;66.10;;;;;;4894647;29;45616;-76
2021/12/02 02:19:21;;;;;;;1.37;1.37;;;17.10;66.30;;;;;;4874098;29;44162;-77
2021/12/02 02:21:51;;;;;;;1.10;1.10;;;17.00;66.40;;;;;;4887512;29;43686;-77
2021/12/02 02:24:19;;;;;;;1.43;1.43;;;17.00;67.40;;;;;;4886858;29;44160;-77
2021/12/02 02:26:47;;;;;;;1.43;1.43;;;16.90;66.80;;;;;;4883681;29;44099;-77
2021/12/02 02:29:18;;;;;;;1.40;1.40;;;16.90;67.00;;;;;;4887268;29;44003;-77
2021/12/02 02:31:47;;;;;;;1.20;1.20;;;16.90;67.10;;;;;;4886454;29;44003;-76
2021/12/02 02:34:15;;;;;;;1.50;1.50;;;16.80;67.10;;;;;;4887067;29;44090;-76
2021/12/02 02:36:51;;;;;;;1.20;1.20;;;16.80;67.20;;;;;;4873145;29;45608;-77
2021/12/02 02:39:20;;;;;;;1.47;1.47;;;16.80;67.30;;;;;;4886975;29;44036;-77
2021/12/02 02:41:55;;;;;;;1.50;1.50;;;16.90;67.20;;;;;;4869657;29;44114;-77
2021/12/02 02:44:23;;;;;;;1.17;1.17;;;17.00;66.90;;;;;;4882499;29;44019;-77
2021/12/02 02:46:51;;;;;;;1.30;1.30;;;17.00;66.60;;;;;;4882440;29;44383;-77
2021/12/02 02:49:19;;;;;;;1.17;1.17;;;17.00;66.70;;;;;;4869598;29;44756;-76
2021/12/02 02:51:48;;;;;;;1.20;1.20;;;16.90;66.80;;;;;;4886892;29;44090;-76
2021/12/02 02:54:16;;;;;;;1.20;1.20;;;16.90;67.00;;;;;;4886467;29;44124;-77
2021/12/02 02:56:50;;;;;;;1.30;1.30;;;16.90;67.10;;;;;;4868936;29;45680;-77
2021/12/02 02:59:25;;;;;;;1.40;1.40;;;16.80;67.10;;;;;;4889211;29;44110;-77
2021/12/02 03:02:07;;;;;;;1.10;1.10;;;16.80;67.20;;;;;;4889566;29;44081;-77
2021/12/02 03:04:41;;;;;;;1.40;1.40;;;16.80;67.40;;;;;;4889307;29;44069;-77
2021/12/02 03:07:12;;;;;;;1.33;1.33;;;16.70;67.30;;;;;;4886077;29;43930;-77
2021/12/02 03:09:56;;;;;;;1.20;1.20;;;16.70;67.40;;;;;;4889562;29;44018;-77
2021/12/02 03:12:30;;;;;;;1.13;1.13;;;16.70;67.40;;;;;;4872382;29;44054;-77
2021/12/02 03:17:44;;;;;;;1.07;1.07;;;16.70;67.60;;;;;;4887990;29;45392;-76
2021/12/02 03:20:12;;;;;;;1.10;1.10;;;16.80;67.60;;;;;;4888927;29;44061;-76
2021/12/02 03:22:40;;;;;;;1.30;1.30;;;16.90;67.30;;;;;;4889187;29;45720;-77
2021/12/02 03:25:09;;;;;;;1.30;1.30;;;17.00;67.00;;;;;;4872574;29;44181;-77
2021/12/02 03:27:41;;;;;;;1.50;1.50;;;17.10;66.60;;;;;;4888898;29;44168;-77
2021/12/02 03:30:10;;;;;;;1.03;1.03;;;17.10;66.30;;;;;;4887920;29;44327;-77
2021/12/02 03:32:41;;;;;;;1.10;1.10;;;17.10;66.10;;;;;;4885230;29;44023;-77
2021/12/02 03:35:09;;;;;;;1.10;1.10;;;17.10;66.30;;;;;;4872667;29;44091;-77
2021/12/02 03:37:37;;;;;;;1.07;1.07;;;17.00;66.50;;;;;;4889720;29;44402;-76
2021/12/02 03:40:07;;;;;;;1.30;1.30;;;17.00;66.80;;;;;;4872751;29;44324;-76
2021/12/02 03:42:35;;;;;;;1.20;1.20;;;16.90;67.00;;;;;;4888766;29;44413;-76
2021/12/02 03:45:06;;;;;;;1.20;1.20;;;16.80;67.10;;;;;;4872223;29;44045;-77
2021/12/02 03:47:34;;;;;;;1.30;1.30;;;16.80;67.30;;;;;;4889315;29;44802;-77
2021/12/02 03:50:02;;;;;;;1.20;1.20;;;16.70;67.30;;;;;;4871825;29;44581;-77
2021/12/02 03:52:30;;;;;;;1.27;1.27;;;16.70;67.40;;;;;;4872027;29;43407;-77
2021/12/02 03:54:58;;;;;;;1.40;1.40;;;16.70;67.50;;;;;;4889026;29;44191;-77
2021/12/02 03:57:28;;;;;;;1.10;1.10;;;16.70;67.70;;;;;;4874831;29;45952;-77
2021/12/02 03:59:56;;;;;;;1.00;1.00;;;16.70;67.60;;;;;;4888753;29;43512;-78
2021/12/02 04:02:26;;;;;;;1.50;1.50;;;16.90;67.30;;;;;;4888684;29;44133;-77
2021/12/02 04:04:54;;;;;;;1.27;1.27;;;16.90;66.90;;;;;;4888802;29;44026;-77
2021/12/02 04:07:25;;;;;;;1.10;1.10;;;16.90;66.70;;;;;;4902578;29;43891;-77
2021/12/02 04:09:55;;;;;;;1.20;1.20;;;16.90;66.80;;;;;;4888692;29;44342;-77
2021/12/02 04:12:30;;;;;;;1.10;1.10;;;16.90;66.90;;;;;;4888451;29;44113;-78
2021/12/02 04:15:03;;;;;;;1.30;1.20;;;16.80;67.00;;;;;;4887868;29;44615;-78
2021/12/02 04:17:43;;;;;;;1.03;1.03;;;16.80;67.00;;;;;;4883299;29;44704;-79
2021/12/02 04:20:12;;;;;;;0.90;0.90;;;16.80;67.10;;;;;;4888579;29;43491;-78
2021/12/02 04:22:41;;;;;;;1.10;1.10;;;16.80;67.20;;;;;;4893452;29;44031;-77
2021/12/02 04:25:10;;;;;;;1.13;1.13;;;16.80;67.20;;;;;;4868889;29;44214;-77
2021/12/02 04:27:38;;;;;;;1.20;1.20;;;16.80;67.30;;;;;;4901076;29;45620;-77
2021/12/02 04:30:08;;;;;;;1.00;1.00;;;16.80;67.30;;;;;;4888474;29;44109;-77
2021/12/02 04:32:37;;;;;;;1.20;1.20;;;16.80;67.30;;;;;;4868450;29;44162;-77
2021/12/02 04:35:06;;;;;;;1.13;1.03;;;16.80;67.30;;;;;;4871706;29;43733;-78
2021/12/02 04:37:37;;;;;;;1.80;1.70;;;16.80;67.60;;;;;;4871172;29;46915;-77
2021/12/02 04:40:06;;;;;;;5.60;1.80;;;16.80;67.40;;;;;;4869948;29;45287;-77
2021/12/02 04:42:34;;;;;;;4.60;2.37;;;17.00;67.10;;;;;;4887279;29;44106;-76
2021/12/02 04:45:02;;;;;;;4.60;2.47;;;17.10;66.70;;;;;;4887753;29;43988;-78
2021/12/02 04:47:30;;;;;;;3.87;2.70;;;17.20;66.30;;;;;;4870619;29;44354;-78
2021/12/02 04:50:00;;;;;;;6.30;3.00;;;17.20;66.00;;;;;;4886681;29;44830;-78
2021/12/02 04:52:28;;;;;;;6.57;2.80;;;17.20;65.90;;;;;;4886968;29;44013;-78
2021/12/02 04:54:56;;;;;;;4.47;3.10;;;17.20;66.00;;;;;;4870832;29;44429;-77
2021/12/02 04:57:24;;;;;;;5.63;2.57;;;17.20;66.20;;;;;;4888333;29;43969;-78
2021/12/02 04:59:52;;;;;;;5.73;2.93;;;17.10;66.30;;;;;;4887654;29;44113;-75
2021/12/02 05:02:20;;;;;;;3.27;2.63;;;17.10;66.50;;;;;;4871176;29;43864;-76
2021/12/02 05:04:48;;;;;;;5.97;3.10;;;17.00;66.60;;;;;;4887392;29;44097;-77
2021/12/02 05:07:18;;;;;;;5.40;3.17;;;17.00;66.80;;;;;;4885529;29;45295;-76
2021/12/02 05:09:46;;;;;;;6.03;3.33;;;17.00;66.90;;;;;;4888161;29;43926;-75
2021/12/02 05:12:14;;;;;;;6.37;3.47;;;16.90;67.00;;;;;;4903067;29;44044;-75
2021/12/02 05:14:42;;;;;;;6.87;3.40;;;16.90;67.10;;;;;;4872397;29;44055;-84
2021/12/02 05:17:11;;;;;;;5.60;2.97;;;16.90;67.30;;;;;;4871560;29;45950;-76
2021/12/02 05:19:39;;;;;;;6.07;3.50;;;16.90;67.10;;;;;;4875308;29;44894;-76
2021/12/02 05:22:08;;;;;;;5.73;3.40;;;17.00;66.70;;;;;;4887668;29;43507;-75
2021/12/02 05:24:37;;;;;;;6.30;3.27;;;17.00;66.50;;;;;;4870932;29;44153;-75
2021/12/02 05:27:06;;;;;;;4.57;3.10;;;17.00;66.60;;;;;;4872379;29;47016;-75
2021/12/02 05:29:34;;;;;;;4.33;2.97;;;17.00;66.70;;;;;;4870733;29;44771;-75
2021/12/02 05:32:02;;;;;;;5.47;3.33;;;16.90;66.90;;;;;;4887921;29;43985;-75
2021/12/02 05:34:30;;;;;;;3.47;3.17;;;16.90;67.00;;;;;;4886850;29;44003;-75
2021/12/02 05:36:58;;;;;;;6.83;3.50;;;16.90;67.10;;;;;;4871435;29;44936;-75
2021/12/02 05:39:26;;;;;;;3.20;2.70;;;16.80;67.20;;;;;;4870535;29;44631;-75
2021/12/02 05:41:56;;;;;;;5.20;3.20;;;16.80;67.20;;;;;;4877285;29;44512;-76
2021/12/02 05:44:24;;;;;;;4.80;3.00;;;16.80;67.20;;;;;;4893815;29;44598;-76
2021/12/02 05:46:52;;;;;;;3.47;3.17;;;16.80;67.40;;;;;;4888342;29;44722;-76
2021/12/02 05:49:20;;;;;;;5.90;3.43;;;16.80;67.50;;;;;;4872346;29;44583;-76
2021/12/02 05:51:48;;;;;;;4.50;3.13;;;16.80;67.50;;;;;;4900465;29;43992;-76
2021/12/02 05:54:16;;;;;;;3.60;2.83;;;16.70;67.50;;;;;;4886842;29;44063;-75
2021/12/02 05:56:44;;;;;;;3.67;3.20;;;16.80;67.60;;;;;;4886384;29;43920;-75
2021/12/02 05:59:14;;;;;;;5.17;3.13;;;16.80;67.40;;;;;;4900657;29;44418;-75
2021/12/02 06:01:42;;;;;;;5.23;3.13;;;16.90;67.00;;;;;;4886439;29;44153;-75
2021/12/02 06:04:11;;;;;;;3.10;2.80;;;17.00;67.40;;;;;;4887344;29;44092;-75
2021/12/02 06:06:40;;;;;;;3.47;2.70;;;17.10;66.40;;;;;;4881593;29;44025;-75
2021/12/02 06:09:09;;;;;;;5.70;3.37;;;17.20;66.20;;;;;;4887575;29;43964;-75
2021/12/02 06:11:41;;;;;;;3.30;2.83;;;17.10;66.20;;;;;;4882258;29;43938;-76
2021/12/02 06:14:11;;;;;;;3.77;3.10;;;17.00;66.40;;;;;;4901052;29;43922;-77
2021/12/02 06:16:41;;;;;;;3.37;2.90;;;17.00;66.70;;;;;;4870008;29;45347;-76
2021/12/02 06:19:09;;;;;;;2.93;2.60;;;16.90;66.90;;;;;;4888992;29;43963;-75
2021/12/02 06:21:38;;;;;;;3.43;2.93;;;16.90;67.10;;;;;;4871049;29;43489;-75
2021/12/02 06:24:07;;;;;;;3.23;2.93;;;16.80;67.20;;;;;;4888195;29;44011;-75
2021/12/02 06:26:37;;;;;;;3.20;2.87;;;16.80;67.30;;;;;;4883067;29;45147;-76
2021/12/02 06:29:05;;;;;;;2.73;2.53;;;16.80;67.40;;;;;;4870169;29;44874;-76
2021/12/02 06:31:33;;;;;;;3.27;2.60;;;16.70;67.40;;;;;;4887511;29;43927;-75
2021/12/02 06:34:03;;;;;;;3.27;2.43;;;16.80;67.50;;;;;;4887152;29;44048;-75
2021/12/02 06:36:31;;;;;;;3.90;2.77;;;16.70;67.50;;;;;;4890473;29;44833;-75
2021/12/02 06:38:59;;;;;;;3.17;2.87;;;16.80;67.40;;;;;;4872945;29;44006;-75
2021/12/02 06:41:28;;;;;;;3.67;2.90;;;16.90;67.00;;;;;;4873301;29;44079;-75
2021/12/02 06:43:56;;;;;;;2.80;2.40;;;16.90;66.80;;;;;;4890427;29;44163;-75
2021/12/02 06:46:24;;;;;;;3.47;2.67;;;16.90;66.90;;;;;;4890084;29;43879;-76
2021/12/02 06:48:52;;;;;;;2.80;2.60;;;16.90;67.00;;;;;;4889476;29;44050;-75
2021/12/02 06:51:21;;;;;;;3.20;2.30;;;16.90;67.00;;;;;;4890408;29;44057;-75
2021/12/02 06:53:50;;;;;;;2.43;2.23;;;16.90;67.10;;;;;;4889970;29;43946;-76
2021/12/02 06:56:18;;;;;;;2.67;2.37;;;16.90;67.20;;;;;;4889349;29;44302;-75
2021/12/02 06:58:46;;;;;;;2.57;2.37;;;16.90;67.30;;;;;;4872803;29;44020;-76
2021/12/02 07:01:14;;;;;;;2.73;2.53;;;16.80;67.20;;;;;;4889859;29;44015;-75
2021/12/02 07:03:43;;;;;;;2.70;2.50;;;16.80;67.30;;;;;;4889722;29;43560;-75
2021/12/02 07:06:11;;;;;;;2.97;2.03;;;16.80;67.30;;;;;;4889464;29;44020;-75
2021/12/02 07:08:40;;;;;;;2.40;2.20;;;16.80;67.30;;;;;;4889483;29;43970;-76
2021/12/02 07:11:10;;;;;;;2.87;2.30;;;16.80;67.40;;;;;;4889491;29;44027;-75
2021/12/02 07:13:39;;;;;;;2.70;2.50;;;16.80;67.40;;;;;;4875399;29;44079;-76
2021/12/02 07:16:07;;;;;;;2.60;2.50;;;16.80;67.50;;;;;;4889034;29;44267;-76
2021/12/02 07:18:38;;;;;;;2.50;2.03;;;16.80;67.40;;;;;;4889728;29;44164;-75
2021/12/02 07:21:06;;;;;;;2.47;2.27;;;16.90;67.10;;;;;;4889957;29;44082;-75
2021/12/02 07:23:34;;;;;;;2.70;2.50;;;17.00;66.70;;;;;;4889829;29;44256;-76
2021/12/02 07:26:04;;;;;;;4.00;2.30;;;17.20;66.50;;;;;;4889165;29;44803;-76
2021/12/02 07:28:35;;;;;;;2.80;2.60;;;17.20;66.10;;;;;;4889351;29;44221;-75
2021/12/02 07:31:05;;;;;;;3.17;2.33;;;17.20;65.90;;;;;;4888322;29;43485;-75
2021/12/02 07:33:34;;;;;;;2.60;2.40;;;17.20;66.20;;;;;;4888301;29;44188;-75
2021/12/02 07:36:02;;;;;;;2.57;2.37;;;17.10;66.40;;;;;;4888746;29;44553;-75
2021/12/02 07:38:30;;;;;;;1.97;1.87;;;17.10;66.60;;;;;;4872149;29;44826;-75
2021/12/02 07:41:00;;;;;;;2.63;2.30;;;17.00;66.80;;;;;;4874957;29;44045;-75
2021/12/02 07:43:29;;;;;;;2.10;2.00;;;16.90;66.90;;;;;;4889413;29;43891;-74
2021/12/02 07:45:57;;;;;;;2.23;2.13;;;16.90;67.10;;;;;;4870831;29;45587;-75
2021/12/02 07:48:26;;;;;;;2.20;2.10;;;16.80;67.20;;;;;;4871509;29;44103;-75
2021/12/02 07:50:54;;;;;;;1.90;1.80;;;16.80;67.30;;;;;;4889186;29;44083;-75
2021/12/02 07:53:23;;;;;;;2.27;2.13;;;16.80;67.40;;;;;;4903470;29;43666;-75
2021/12/02 07:55:51;;;;;;;2.03;1.93;;;16.80;67.50;;;;;;4889000;29;44415;-75
2021/12/02 07:58:19;;;;;;;2.23;2.13;;;16.80;67.30;;;;;;4888781;29;44387;-75
2021/12/02 08:00:48;;;;;;;2.20;2.10;;;16.90;67.00;;;;;;4872079;29;43371;-75
2021/12/02 08:03:17;;;;;;;2.20;2.10;;;17.00;66.80;;;;;;4870298;29;43990;-75
2021/12/02 08:05:45;;;;;;;1.73;1.73;;;17.00;66.90;;;;;;4871322;29;45892;-75
2021/12/02 08:08:13;;;;;;;2.00;1.90;;;16.90;66.90;;;;;;4888774;29;43973;-75
2021/12/02 08:10:41;;;;;;;2.07;1.97;;;16.90;67.00;;;;;;4886124;29;44052;-75
2021/12/02 08:13:09;;;;;;;2.23;2.07;;;16.90;67.20;;;;;;4887533;29;44541;-76
2021/12/02 08:15:37;;;;;;;2.00;1.90;;;16.80;67.20;;;;;;4882369;29;43900;-76
2021/12/02 08:18:06;;;;;;;1.90;1.80;;;16.80;67.30;;;;;;4871626;29;46119;-75
2021/12/02 08:20:35;;;;;;;1.77;1.73;;;16.80;67.40;;;;;;4888715;29;43993;-75
2021/12/02 08:23:03;;;;;;;2.10;2.00;;;16.80;67.50;;;;;;4888371;29;43931;-75
2021/12/02 08:25:32;;;;;;;1.80;1.70;;;16.80;67.50;;;;;;4871102;29;45797;-75
2021/12/02 08:28:00;;;;;;;2.30;2.20;;;16.70;67.50;;;;;;4871049;29;44727;-76
2021/12/02 08:30:28;;;;;;;1.70;1.60;;;16.70;67.50;;;;;;4888455;29;44023;-75
2021/12/02 08:32:58;;;;;;;2.10;1.80;;;16.70;67.60;;;;;;4871205;29;44032;-75
2021/12/02 08:35:27;;;;;;;2.23;2.03;;;16.70;67.70;;;;;;4886715;29;45441;-75
2021/12/02 08:37:59;;;;;;;1.97;1.97;;;16.80;67.50;;;;;;4871136;29;45159;-75
2021/12/02 08:40:31;;;;;;;1.93;1.83;;;16.90;67.10;;;;;;4902790;29;44130;-76
2021/12/02 08:43:00;;;;;;;1.67;1.67;;;17.00;66.70;;;;;;4902674;29;43990;-76
2021/12/02 08:45:28;;;;;;;2.00;1.90;;;17.10;66.40;;;;;;4887927;29;44042;-76
2021/12/02 08:47:56;;;;;;;2.17;2.07;;;17.20;66.20;;;;;;4887540;29;44055;-76
2021/12/02 08:50:24;;;;;;;1.93;1.83;;;17.10;66.10;;;;;;4888677;29;44021;-76
2021/12/02 08:52:54;;;;;;;1.60;1.50;;;17.10;66.40;;;;;;4887982;29;43938;-76
2021/12/02 08:55:23;;;;;;;1.87;1.77;;;17.00;66.50;;;;;;4870859;29;44611;-76
2021/12/02 08:57:52;;;;;;;1.80;1.80;;;17.00;66.70;;;;;;4887452;29;43906;-76
2021/12/02 09:00:22;;;;;;;1.60;1.60;;;16.90;66.90;;;;;;4888111;29;43444;-76
2021/12/02 09:02:50;;;;;;;1.80;1.70;;;16.90;67.00;;;;;;4870989;29;43552;-76
2021/12/02 09:05:19;;;;;;;1.80;1.80;;;16.80;67.10;;;;;;4871123;29;45588;-76
2021/12/02 09:07:47;;;;;;;1.90;1.80;;;16.80;67.20;;;;;;4887266;29;44352;-76
2021/12/02 09:10:21;;;;;;;1.87;1.77;;;16.80;67.30;;;;;;4887924;29;43973;-76
2021/12/02 09:12:49;;;;;;;1.50;1.50;;;16.80;67.50;;;;;;4887911;29;43947;-76
2021/12/02 09:15:17;;;;;;;1.60;1.60;;;16.80;67.50;;;;;;4870169;29;46043;-76
2021/12/02 09:17:45;;;;;;;1.83;1.73;;;16.90;67.30;;;;;;4887353;29;44171;-76
2021/12/02 09:20:15;;;;;;;1.57;1.47;;;16.90;66.90;;;;;;4887660;29;43999;-75
2021/12/02 09:22:43;;;;;;;1.70;1.60;;;17.00;66.80;;;;;;4887575;29;43884;-76
2021/12/02 09:25:11;;;;;;;1.47;1.40;;;16.90;66.80;;;;;;4887733;29;45367;-76
2021/12/02 09:27:40;;;;;;;1.60;1.60;;;16.90;67.00;;;;;;4887294;29;43954;-76
2021/12/02 09:30:09;;;;;;;1.80;1.70;;;16.90;67.10;;;;;;4887880;29;44017;-75
2021/12/02 09:32:38;;;;;;;1.60;1.60;;;16.80;67.20;;;;;;4870837;29;44018;-75
2021/12/02 09:35:07;;;;;;;1.60;1.60;;;16.80;67.30;;;;;;4887409;29;43978;-75
2021/12/02 09:37:35;;;;;;;1.77;1.70;;;16.70;67.40;;;;;;4887025;29;44127;-75
2021/12/02 09:40:07;;;;;;;1.50;1.50;;;16.70;67.40;;;;;;4888056;29;43845;-75
2021/12/02 09:42:35;;;;;;;1.90;1.80;;;16.70;67.50;;;;;;4870639;29;44119;-75
2021/12/02 09:45:06;;;;;;;1.63;1.63;;;16.70;67.60;;;;;;4885965;29;46796;-75
2021/12/02 09:47:36;;;;;;;1.30;1.30;;;16.70;67.60;;;;;;4881812;29;44061;-75
2021/12/02 09:50:07;;;;;;;1.90;1.80;;;16.70;67.60;;;;;;4887065;29;43492;-74
2021/12/02 09:52:38;;;;;;;1.73;1.67;;;16.70;67.70;;;;;;4887351;29;44115;-75
2021/12/02 09:55:10;;;;;;;1.83;1.80;;;16.70;67.70;;;;;;4887568;29;43981;-75
2021/12/02 09:57:41;;;;;;;1.70;1.70;;;16.80;67.50;;;;;;4887381;29;44173;-75
2021/12/02 10:00:16;;;;;;;1.30;1.30;;;16.90;67.10;;;;;;4870689;29;43549;-76
2021/12/02 10:02:52;;;;;;;1.80;1.70;;;17.00;66.70;;;;;;4887245;29;43939;-76
2021/12/02 10:05:31;;;;;;;1.30;1.30;;;17.10;66.40;;;;;;4900432;29;43989;-76
2021/12/02 10:08:03;;;;;;;1.37;1.37;;;17.10;66.40;;;;;;4874807;29;45022;-75
2021/12/02 10:10:37;;;;;;;1.67;1.67;;;17.10;66.60;;;;;;4868157;29;44138;-75
2021/12/02 10:13:19;;;;;;;1.30;1.30;;;17.00;66.70;;;;;;4886694;29;43480;-76
2021/12/02 10:16:16;;;;;;;1.40;1.40;;;16.90;67.30;;;;;;4886595;29;43944;-75
2021/12/02 10:21:36;;;;;;;1.40;1.40;;;16.80;67.20;;;;;;4883433;29;43604;-75
2021/12/02 10:24:07;;;;;;;1.23;1.23;;;16.80;67.30;;;;;;4886840;29;44051;-75
2021/12/02 10:26:41;;;;;;;1.27;1.27;;;16.80;67.40;;;;;;4886625;29;45150;-76
2021/12/02 10:29:16;;;;;;;1.20;1.20;;;16.80;67.50;;;;;;4886781;29;44035;-75
2021/12/02 10:31:47;;;;;;;1.27;1.27;;;16.70;67.40;;;;;;4886803;29;44036;-75
2021/12/02 10:34:16;;;;;;;1.60;1.60;;;16.70;67.60;;;;;;4886838;29;44077;-76
2021/12/02 10:36:46;;;;;;;1.50;1.50;;;16.90;67.50;;;;;;4886318;29;44002;-76
2021/12/02 10:39:17;;;;;;;1.33;1.33;;;16.90;67.40;;;;;;4869509;29;44016;-75
2021/12/02 10:41:45;;;;;;;1.40;1.40;;;17.00;66.60;;;;;;4864338;29;44173;-75
2021/12/02 10:44:16;;;;;;;1.17;1.17;;;17.00;66.40;;;;;;4881818;29;44045;-76
2021/12/02 10:47:09;;;;;;;1.30;1.30;;;17.00;66.50;;;;;;4879559;29;45450;-75
2021/12/02 10:49:42;;;;;;;1.13;1.13;;;17.00;66.70;;;;;;4860185;29;44639;-75
2021/12/02 10:52:11;;;;;;;1.20;1.20;;;17.00;66.90;;;;;;4887106;29;44005;-75
2021/12/02 10:54:42;;;;;;;1.73;1.63;;;16.90;67.00;;;;;;4886302;29;43982;-75
2021/12/02 10:57:11;;;;;;;1.60;1.50;;;16.90;67.20;;;;;;4874731;29;45856;-75
2021/12/02 10:59:42;;;;;;;1.27;1.27;;;16.80;67.20;;;;;;4869535;29;44792;-75
2021/12/02 11:02:18;;;;;;;1.20;1.20;;;16.80;67.30;;;;;;4869487;29;44179;-75
2021/12/02 11:04:48;;;;;;;1.30;1.30;;;16.80;67.40;;;;;;4869215;29;44118;-75
2021/12/02 11:07:21;;;;;;;1.30;1.30;;;16.70;67.40;;;;;;4886212;29;44029;-76
2021/12/02 11:09:50;;;;;;;1.23;1.23;;;16.80;67.50;;;;;;4868966;29;44860;-76
2021/12/02 11:12:21;;;;;;;1.20;1.20;;;16.70;67.60;;;;;;4886180;29;44047;-75
2021/12/02 11:15:10;;;;;;;1.40;1.40;;;16.80;67.70;;;;;;4886414;29;44500;-75
2021/12/02 11:17:43;;;;;;;1.63;1.63;;;16.80;67.40;;;;;;4868145;29;45661;-75
2021/12/02 11:20:12;;;;;;;1.30;1.30;;;17.00;67.00;;;;;;4869468;29;44359;-75
2021/12/02 11:22:40;;;;;;;1.30;1.30;;;17.00;67.30;;;;;;4888373;29;44175;-75
2021/12/02 11:25:10;;;;;;;1.20;1.20;;;17.00;66.40;;;;;;4889740;29;43995;-75
2021/12/02 11:27:39;;;;;;;1.43;1.43;;;17.00;66.60;;;;;;4894670;29;47220;-75
2021/12/02 11:30:10;;;;;;;1.10;1.10;;;17.00;66.80;;;;;;4888984;29;44071;-75
2021/12/02 11:32:46;;;;;;;1.33;1.33;;;16.90;66.90;;;;;;4898180;29;44110;-75
2021/12/02 11:35:28;;;;;;;1.30;1.30;;;16.90;67.10;;;;;;4889297;29;44045;-75
2021/12/02 11:37:59;;;;;;;1.20;1.20;;;16.80;67.20;;;;;;4889513;29;43670;-75
2021/12/02 11:40:29;;;;;;;1.37;1.37;;;16.80;67.30;;;;;;4889330;29;44182;-75
2021/12/02 11:42:58;;;;;;;1.20;1.20;;;16.80;67.40;;;;;;4875074;29;44300;-75
2021/12/02 11:45:27;;;;;;;1.30;1.30;;;16.80;67.50;;;;;;4872312;29;44094;-75
2021/12/02 11:47:56;;;;;;;1.20;1.20;;;16.70;67.40;;;;;;4889027;29;44032;-75
2021/12/02 11:50:26;;;;;;;1.10;1.10;;;16.70;67.50;;;;;;4888850;29;44107;-75
2021/12/02 11:52:54;;;;;;;1.30;1.30;;;16.70;67.60;;;;;;4888997;29;44044;-75
2021/12/02 11:55:23;;;;;;;1.17;1.17;;;16.80;67.60;;;;;;4889149;29;43978;-75
2021/12/02 11:57:51;;;;;;;1.07;1.07;;;16.90;67.30;;;;;;4888688;29;44717;-74
2021/12/02 12:00:20;;;;;;;1.10;1.10;;;16.90;67.00;;;;;;4888613;29;43523;-74
2021/12/02 12:03:06;;;;;;;1.17;1.17;;;16.90;67.10;;;;;;4887594;29;43903;-74
2021/12/02 12:05:36;;;;;;;1.10;1.10;;;16.90;67.20;;;;;;4887226;29;44173;-74
2021/12/02 12:08:04;;;;;;;1.00;1.00;;;16.80;67.20;;;;;;4888626;29;44067;-74
2021/12/02 12:10:34;;;;;;;1.13;1.13;;;16.80;67.30;;;;;;4871404;29;44672;-74
2021/12/02 12:13:22;;;;;;;1.10;1.10;;;16.70;67.30;;;;;;4887643;29;44151;-74
2021/12/02 12:15:51;;;;;;;2.33;1.20;;;16.70;67.60;;;;;;4885939;29;43922;-75
2021/12/02 12:18:39;;;;;;;1.20;1.10;;;16.70;67.10;;;;;;4888877;29;43936;-77
2021/12/02 12:21:09;;;;;;;1.10;1.10;;;16.70;64.50;;;;;;4888568;29;44153;-76
2021/12/02 12:23:40;;;;;;;2.20;1.30;;;16.60;64.10;;;;;;4882919;29;44039;-75
2021/12/02 12:26:09;;;;;;;1.20;1.20;;;16.60;64.50;;;;;;4889203;29;43552;-77
2021/12/02 12:29:13;;;;;;;1.20;1.10;;;16.60;64.90;;;;;;4867291;29;45552;-75
2021/12/02 12:35:15;;;;;;;2.23;1.00;;;16.70;65.20;;;;;;4880021;29;44067;-75
2021/12/02 12:40:48;;;;;;;0.93;0.93;;;16.90;64.70;;;;;;4864050;29;45890;-74
2021/12/02 12:43:32;;;;;;;1.07;1.00;;;17.10;64.50;;;;;;4878193;29;44041;-74
2021/12/02 12:46:05;;;;;;;2.50;1.10;;;17.10;64.20;;;;;;4868317;29;44119;-74
2021/12/02 12:48:34;;;;;;;1.47;1.23;;;17.10;64.30;;;;;;4868565;29;43549;-75
2021/12/02 12:51:15;;;;;;;0.90;0.90;;;17.00;64.50;;;;;;4885026;29;44413;-74
2021/12/02 12:53:44;;;;;;;0.80;0.80;;;17.00;64.80;;;;;;4884600;29;44032;-75
2021/12/02 12:56:13;;;;;;;1.10;1.10;;;16.90;65.10;;;;;;4885064;29;44138;-74
2021/12/02 12:58:58;;;;;;;1.47;1.10;;;16.90;65.20;;;;;;4884980;29;44115;-74
2021/12/02 13:01:27;;;;;;;1.43;1.07;;;16.80;65.50;;;;;;4867506;29;44086;-74
2021/12/02 13:04:06;;;;;;;1.63;1.07;;;16.80;65.60;;;;;;4884287;29;44058;-75
2021/12/02 13:06:48;;;;;;;0.93;0.93;;;16.80;65.80;;;;;;4884838;29;43505;-74
2021/12/02 13:09:34;;;;;;;1.00;1.00;;;16.70;65.90;;;;;;4885971;29;44226;-75
2021/12/02 13:12:03;;;;;;;0.93;0.93;;;16.70;66.00;;;;;;4861542;29;45373;-75
2021/12/02 13:14:31;;;;;;;0.87;0.87;;;16.70;66.10;;;;;;4867357;29;44460;-74
2021/12/02 13:17:00;;;;;;;1.00;1.00;;;16.80;65.70;;;;;;4884218;29;44002;-73
2021/12/02 13:19:28;;;;;;;0.90;0.90;;;16.90;65.40;;;;;;4867708;29;44126;-73